Time;durP1;ratioP1;P1;durP2;ratioP2;P2;SDS_P1;SDS_P2;PMS_P1;PMS_P2;Temp;Humidity;BMP_temperature;BMP_pressure;BME280_temperature;BME280_humidity;BME280_pressure;Samples;Min_cycle;Max_cycle;Signal;HPM_P1;HPM_P2
2022/01/08 00:01:05;;;;;;;;;;;;;;;21.81;33.25;101536.22;105200;1299;74744;-84
2022/01/08 00:03:43;;;;;;;;;;;;;;;;;;;;;
2022/01/08 00:06:24;;;;;;;;;;;;;;;21.82;33.25;101535.30;105262;1299;61993;-82
2022/01/08 00:08:59;;;;;;;;;;;;;;;21.82;33.28;101536.18;105306;1299;73843;-84
2022/01/08 00:11:51;;;;;;;;;;;;;;;21.82;33.39;101540.27;105351;1299;76385;-86
2022/01/08 00:14:36;;;;;;;;;;;;;;;21.83;33.20;101539.88;105247;1299;61192;-82
2022/01/08 00:17:22;;;;;;;;;;;;;;;21.83;33.20;101534.86;105252;1299;61264;-87
2022/01/08 00:20:08;;;;;;;;;;;;;;;21.83;33.26;101543.10;105234;1299;73566;-82
2022/01/08 00:22:41;;;;;;;;;;;;;;;21.83;33.32;101542.35;105212;1300;75850;-86
2022/01/08 00:25:28;;;;;;;;;;;;;;;21.83;33.21;101539.85;105228;1299;61586;-81
2022/01/08 00:27:59;;;;;;;;;;;;;;;21.83;33.27;101540.94;105257;1299;61154;-79
2022/01/08 00:30:30;;;;;;;;;;;;;;;21.84;33.31;101538.94;105161;1299;73850;-78
2022/01/08 00:32:59;;;;;;;;;;;;;;;21.85;33.40;101539.05;105272;1299;76937;-83
2022/01/08 00:35:52;;;;;;;;;;;;;;;21.84;33.11;101542.67;105201;1300;61957;-83
2022/01/08 00:38:31;;;;;;;;;;;;;;;21.84;33.22;101540.90;105118;1299;61263;-83
2022/01/08 00:40:59;;;;;;;;;;;;;;;21.84;33.09;101535.70;105182;1299;72681;-82
2022/01/08 00:43:40;;;;;;;;;;;;;;;21.84;33.45;101535.89;105214;1298;73957;-81
2022/01/08 00:46:06;;;;;;;;;;;;;;;21.83;33.35;101534.83;105318;1299;61141;-81
2022/01/08 00:48:45;;;;;;;;;;;;;;;21.83;33.19;101537.34;105230;1299;62393;-84
2022/01/08 00:51:51;;;;;;;;;;;;;;;21.84;33.19;101532.13;105282;1299;72793;-84
2022/01/08 00:54:19;;;;;;;;;;;;;;;21.84;33.21;101532.98;105311;1298;74443;-81
2022/01/08 00:57:04;;;;;;;;;;;;;;;21.83;33.31;101531.77;105242;1299;61265;-83
2022/01/08 00:59:39;;;;;;;;;;;;;;;21.84;33.31;101529.59;105209;1300;62486;-80
2022/01/08 01:02:22;;;;;;;;;;;;;;;21.84;33.37;101524.77;105367;1298;72877;-82
2022/01/08 01:04:50;;;;;;;;;;;;;;;21.84;33.42;101522.23;105193;1299;74791;-81
2022/01/08 01:07:25;;;;;;;;;;;;;;;21.85;33.14;101519.69;105230;1299;61384;-82
2022/01/08 01:09:56;;;;;;;;;;;;;;;21.85;33.28;101520.58;105294;1298;61415;-82
2022/01/08 01:12:21;;;;;;;;;;;;;;;21.85;33.05;101516.63;105316;1297;73174;-82
2022/01/08 01:15:02;;;;;;;;;;;;;;;21.85;33.04;101515.74;105233;1299;75032;-80
2022/01/08 01:17:30;;;;;;;;;;;;;;;21.85;33.33;101515.75;105236;1299;61278;-82
2022/01/08 01:20:01;;;;;;;;;;;;;;;21.85;33.37;101511.79;105216;1299;62369;-82
2022/01/08 01:22:59;;;;;;;;;;;;;;;21.84;33.38;101508.97;105292;1299;72870;-82
2022/01/08 01:25:32;;;;;;;;;;;;;;;21.84;33.37;101510.92;105249;1299;75615;-84
2022/01/08 01:28:09;;;;;;;;;;;;;;;21.84;33.40;101507.55;105202;1298;61340;-82
2022/01/08 01:41:06;;;;;;;;;;;;;;;21.84;33.26;101503.59;105244;1299;61253;-83
2022/01/08 01:48:43;;;;;;;;;;;;;;;21.85;33.39;101477.95;105292;1299;74641;-82
2022/01/08 01:51:38;;;;;;;;;;;;;;;;;;;;;
2022/01/08 01:54:20;;;;;;;;;;;;;;;21.85;33.42;101474.16;105308;1299;61605;-84
2022/01/08 01:56:45;;;;;;;;;;;;;;;21.85;33.23;101471.11;105232;1299;72706;-82
2022/01/08 01:59:40;;;;;;;;;;;;;;;21.85;33.34;101469.33;105200;1299;74779;-81
2022/01/08 02:02:47;;;;;;;;;;;;;;;21.85;33.43;101466.48;105214;1298;61245;-81
2022/01/08 02:05:21;;;;;;;;;;;;;;;21.84;33.51;101464.72;104952;1299;61141;-83
2022/01/08 02:07:58;;;;;;;;;;;;;;;21.84;33.56;101461.83;105267;1299;72731;-81
2022/01/08 02:10:45;;;;;;;;;;;;;;;21.86;33.61;101455.50;105284;1299;74733;-81
2022/01/08 02:13:32;;;;;;;;;;;;;;;21.85;33.41;101454.81;105212;1299;61287;-82
2022/01/08 02:16:17;;;;;;;;;;;;;;;;;;;;;
2022/01/08 02:18:46;;;;;;;;;;;;;;;21.86;33.33;101441.16;105276;1299;73939;-84
2022/01/08 02:21:24;;;;;;;;;;;;;;;;;;;;;
2022/01/08 02:24:04;;;;;;;;;;;;;;;;;;;;;
2022/01/08 02:26:41;;;;;;;;;;;;;;;21.86;33.53;101438.27;105304;1298;61461;-85
2022/01/08 02:29:22;;;;;;;;;;;;;;;21.86;33.55;101439.89;105234;1299;74335;-81
2022/01/08 02:31:57;;;;;;;;;;;;;;;21.85;33.55;101436.91;105311;1298;73744;-84
2022/01/08 02:34:26;;;;;;;;;;;;;;;21.86;33.45;101437.38;105198;1299;61320;-83
2022/01/08 02:37:19;;;;;;;;;;;;;;;21.85;33.37;101431.84;105216;1299;61157;-81
2022/01/08 02:39:48;;;;;;;;;;;;;;;21.85;33.70;101432.60;105276;1299;72844;-84
2022/01/08 02:42:16;;;;;;;;;;;;;;;21.85;33.65;101430.30;105185;1299;75775;-81
2022/01/08 02:44:47;;;;;;;;;;;;;;;21.84;33.40;101430.66;105194;1299;61254;-83
2022/01/08 02:47:26;;;;;;;;;;;;;;;21.84;33.64;101429.25;105205;1299;61177;-83
2022/01/08 02:49:59;;;;;;;;;;;;;;;21.84;33.42;101429.05;105230;1299;72809;-83
2022/01/08 02:52:27;;;;;;;;;;;;;;;21.84;33.50;101424.20;105286;1298;74856;-84
2022/01/08 02:55:07;;;;;;;;;;;;;;;21.84;33.60;101421.00;105285;1299;61149;-85
2022/01/08 02:57:49;;;;;;;;;;;;;;;21.84;33.53;101426.56;105108;1302;61307;-81
2022/01/08 03:00:26;;;;;;;;;;;;;;;21.84;33.56;101421.73;104916;1302;72831;-81
2022/01/08 03:03:09;;;;;;;;;;;;;;;21.85;33.59;101420.59;104982;1302;74696;-82
2022/01/08 03:05:43;;;;;;;;;;;;;;;21.85;33.66;101421.14;105042;1301;61307;-84
2022/01/08 03:08:17;;;;;;;;;;;;;;;21.84;33.65;101418.30;104901;1302;61356;-82
2022/01/08 03:10:55;;;;;;;;;;;;;;;;;;;;;
2022/01/08 03:13:31;;;;;;;;;;;;;;;21.85;33.46;101416.65;104995;1302;75838;-83
2022/01/08 03:15:59;;;;;;;;;;;;;;;21.85;33.66;101416.98;104898;1302;61442;-83
2022/01/08 03:18:24;;;;;;;;;;;;;;;21.85;33.54;101408.97;104977;1303;61830;-81
2022/01/08 03:21:01;;;;;;;;;;;;;;;21.85;33.47;101410.39;104907;1302;61311;-84
2022/01/08 03:23:45;;;;;;;;;;;;;;;21.85;33.64;101408.61;104913;1302;73698;-81
2022/01/08 03:26:21;;;;;;;;;;;;;;;21.85;33.70;101406.80;104967;1302;61779;-83
2022/01/08 03:28:49;;;;;;;;;;;;;;;21.84;33.52;101407.90;105064;1302;61165;-80
2022/01/08 03:31:26;;;;;;;;;;;;;;;21.84;33.76;101408.64;100856;1302;5485470;-80
2022/01/08 03:34:15;;;;;;;;;;;;;;;21.85;33.51;101405.38;105129;1302;75889;-84
2022/01/08 03:36:57;;;;;;;;;;;;;;;21.85;33.68;101406.45;104944;1302;61269;-82
2022/01/08 03:39:33;;;;;;;;;;;;;;;21.84;33.61;101402.88;105024;1302;61151;-84
2022/01/08 03:42:08;;;;;;;;;;;;;;;21.85;33.61;101401.25;105156;1299;72315;-84
2022/01/08 03:44:45;;;;;;;;;;;;;;;21.85;33.69;101397.67;105366;1299;74640;-84
2022/01/08 03:47:53;;;;;;;;;;;;;;;21.84;33.51;101398.23;105232;1300;61266;-80
2022/01/08 03:50:17;;;;;;;;;;;;;;;21.85;33.87;101392.66;105295;1298;61110;-81
2022/01/08 03:52:46;;;;;;;;;;;;;;;21.85;33.83;101393.17;105175;1299;72695;-81
2022/01/08 03:55:32;;;;;;;;;;;;;;;21.85;33.77;101389.62;105171;1302;61278;-84
2022/01/08 03:58:11;;;;;;;;;;;;;;;;;;;;;
2022/01/08 04:00:47;;;;;;;;;;;;;;;21.84;33.61;101384.81;104966;1299;61208;-82
2022/01/08 04:03:33;;;;;;;;;;;;;;;21.84;33.73;101385.89;105191;1299;61285;-82
2022/01/08 04:06:18;;;;;;;;;;;;;;;21.84;33.94;101375.13;105212;1299;74979;-82
2022/01/08 04:08:57;;;;;;;;;;;;;;;21.85;33.88;101377.81;105291;1299;61287;-81
2022/01/08 04:11:38;;;;;;;;;;;;;;;21.85;33.81;101377.61;105304;1298;61445;-83
2022/01/08 04:14:15;;;;;;;;;;;;;;;21.85;33.85;101379.57;105269;1299;72703;-82
2022/01/08 04:16:52;;;;;;;;;;;;;;;21.85;33.69;101377.09;105223;1299;74940;-83
2022/01/08 04:19:21;;;;;;;;;;;;;;;21.84;33.69;101378.16;105227;1299;61309;-81
2022/01/08 04:22:19;;;;;;;;;;;;;;;21.84;33.80;101375.30;105287;1299;61282;-83
2022/01/08 04:24:56;;;;;;;;;;;;;;;21.84;33.68;101374.80;105265;1299;72900;-82
2022/01/08 04:27:21;;;;;;;;;;;;;;;21.84;33.62;101380.52;105369;1299;74739;-82
2022/01/08 04:29:58;;;;;;;;;;;;;;;21.84;33.63;101377.30;105311;1298;61166;-82
2022/01/08 04:33:01;;;;;;;;;;;;;;;21.83;33.87;101376.80;105205;1300;61160;-82
2022/01/08 04:35:40;;;;;;;;;;;;;;;21.84;33.64;101380.54;105042;1299;71517;-81
2022/01/08 04:38:15;;;;;;;;;;;;;;;21.84;33.75;101375.33;105260;1299;74862;-81
2022/01/08 04:40:40;;;;;;;;;;;;;;;21.85;33.78;101369.90;105208;1299;61123;-84
2022/01/08 04:43:17;;;;;;;;;;;;;;;;;;;;;
2022/01/08 04:45:47;;;;;;;;;;;;;;;21.85;33.97;101375.11;105223;1299;73728;-82
2022/01/08 04:48:16;;;;;;;;;;;;;;;21.84;33.88;101362.06;105292;1299;75823;-80
2022/01/08 04:50:47;;;;;;;;;;;;;;;21.84;33.91;101363.67;105239;1299;61297;-85
2022/01/08 04:53:21;;;;;;;;;;;;;;;21.84;33.65;101366.02;105384;1299;61173;-80
2022/01/08 04:56:04;;;;;;;;;;;;;;;21.83;33.79;101365.66;105274;1298;73866;-82
2022/01/08 04:58:32;;;;;;;;;;;;;;;21.84;33.73;101363.48;105224;1299;76010;-80
2022/01/08 05:01:00;;;;;;;;;;;;;;;21.84;33.83;101368.70;105260;1298;61340;-82
2022/01/08 05:03:55;;;;;;;;;;;;;;;21.84;33.87;101367.27;105189;1299;61187;-85
2022/01/08 05:06:33;;;;;;;;;;;;;;;21.84;33.91;101365.61;105253;1299;73587;-82
2022/01/08 05:09:02;;;;;;;;;;;;;;;21.85;33.97;101364.34;105238;1299;75697;-81
2022/01/08 05:11:36;;;;;;;;;;;;;;;21.84;33.86;101364.92;105169;1301;61157;-85
2022/01/08 05:14:03;;;;;;;;;;;;;;;21.85;33.69;101370.98;105217;1299;61361;-81
2022/01/08 05:17:01;;;;;;;;;;;;;;;21.85;33.93;101362.02;105205;1299;72609;-86
2022/01/08 05:19:48;;;;;;;;;;;;;;;21.85;33.76;101364.70;105289;1299;75613;-83
2022/01/08 05:22:26;;;;;;;;;;;;;;;21.85;33.71;101359.82;105230;1300;61131;-85
2022/01/08 05:24:55;;;;;;;;;;;;;;;21.86;33.96;101354.43;105202;1300;60496;-83
2022/01/08 05:27:23;;;;;;;;;;;;;;;21.85;33.74;101357.13;105226;1298;72619;-84
2022/01/08 05:29:58;;;;;;;;;;;;;;;21.85;34.01;101357.33;105230;1299;75361;-83
2022/01/08 05:32:29;;;;;;;;;;;;;;;21.85;33.71;101356.08;105293;1299;61362;-81
2022/01/08 05:35:02;;;;;;;;;;;;;;;21.85;33.86;101354.63;105157;1301;61260;-87
2022/01/08 05:37:39;;;;;;;;;;;;;;;21.85;33.93;101355.19;105279;1299;61394;-81
2022/01/08 05:40:15;;;;;;;;;;;;;;;;;;;;;
2022/01/08 05:42:49;;;;;;;;;;;;;;;21.86;33.83;101362.30;105223;1300;61206;-82
2022/01/08 05:45:24;;;;;;;;;;;;;;;21.86;33.84;101361.96;105184;1300;61294;-81
2022/01/08 05:47:57;;;;;;;;;;;;;;;21.86;33.93;101362.63;105250;1299;72787;-80
2022/01/08 05:50:31;;;;;;;;;;;;;;;21.87;33.88;101365.45;105058;1300;73401;-82
2022/01/08 05:53:06;;;;;;;;;;;;;;;21.87;33.98;101370.84;105119;1300;61303;-82
2022/01/08 05:55:40;;;;;;;;;;;;;;;21.86;33.94;101369.08;105243;1299;61133;-82
2022/01/08 05:58:15;;;;;;;;;;;;;;;21.87;33.79;101363.32;105280;1299;73277;-82
2022/01/08 06:00:54;;;;;;;;;;;;;;;21.86;33.99;101356.54;105284;1299;75972;-82
2022/01/08 06:03:40;;;;;;;;;;;;;;;21.86;34.01;101353.14;105209;1299;61256;-82
2022/01/08 06:06:16;;;;;;;;;;;;;;;;;;;;;
2022/01/08 06:09:01;;;;;;;;;;;;;;;21.86;34.06;101355.31;105205;1299;73922;-82
2022/01/08 06:11:34;;;;;;;;;;;;;;;21.86;33.91;101352.27;105186;1299;74759;-81
2022/01/08 06:14:04;;;;;;;;;;;;;;;21.86;34.02;101352.23;105182;1299;61143;-81
2022/01/08 06:16:37;;;;;;;;;;;;;;;21.87;33.92;101355.98;105214;1302;61207;-82
2022/01/08 06:19:19;;;;;;;;;;;;;;;21.87;34.02;101358.48;105282;1299;73006;-86
2022/01/08 06:21:58;;;;;;;;;;;;;;;;;;;;;
2022/01/08 06:24:27;;;;;;;;;;;;;;;21.87;34.00;101355.58;105254;1299;62840;-80
2022/01/08 06:26:53;;;;;;;;;;;;;;;21.86;33.81;101351.69;105212;1299;61720;-83
2022/01/08 06:29:31;;;;;;;;;;;;;;;21.86;34.07;101350.08;105290;1299;74204;-82
2022/01/08 06:32:07;;;;;;;;;;;;;;;21.87;34.05;101348.98;105171;1299;74812;-82
2022/01/08 06:34:33;;;;;;;;;;;;;;;21.87;33.83;101350.23;105235;1300;61304;-81
2022/01/08 06:37:18;;;;;;;;;;;;;;;21.87;34.07;101355.56;105202;1300;61178;-82
2022/01/08 06:39:55;;;;;;;;;;;;;;;;;;;;;
2022/01/08 06:42:30;;;;;;;;;;;;;;;21.88;34.03;101349.05;105219;1299;74659;-83
2022/01/08 06:45:01;;;;;;;;;;;;;;;21.89;33.87;101347.59;105374;1299;61177;-84
2022/01/08 06:47:38;;;;;;;;;;;;;;;21.89;34.09;101341.34;105224;1299;61322;-80
2022/01/08 06:50:06;;;;;;;;;;;;;;;21.89;34.01;101332.91;105314;1299;74056;-84
2022/01/08 06:52:50;;;;;;;;;;;;;;;21.89;33.97;101334.52;105317;1299;75729;-83
2022/01/08 06:55:16;;;;;;;;;;;;;;;21.89;34.00;101329.31;105142;1299;61139;-82
2022/01/08 06:57:59;;;;;;;;;;;;;;;21.89;33.99;101329.66;105326;1299;61305;-82
2022/01/08 07:00:36;;;;;;;;;;;;;;;21.89;33.87;101323.74;105274;1299;74136;-87
2022/01/08 07:03:11;;;;;;;;;;;;;;;21.89;33.99;101318.33;105281;1299;75389;-80
2022/01/08 07:05:50;;;;;;;;;;;;;;;;;;;;;
2022/01/08 07:08:16;;;;;;;;;;;;;;;21.90;34.12;101314.18;105202;1299;61236;-83
2022/01/08 07:10:51;;;;;;;;;;;;;;;21.90;34.03;101313.25;105369;1300;59988;-81
2022/01/08 07:13:27;;;;;;;;;;;;;;;21.91;33.98;101307.48;105206;1299;76027;-84
2022/01/08 07:15:52;;;;;;;;;;;;;;;21.91;33.89;101307.49;105286;1299;61320;-81
2022/01/08 07:18:20;;;;;;;;;;;;;;;21.91;33.80;101309.09;105274;1298;61229;-81
2022/01/08 07:21:01;;;;;;;;;;;;;;;21.91;34.13;101313.38;105188;1299;74188;-82
2022/01/08 07:23:32;;;;;;;;;;;;;;;21.91;34.08;101316.62;105320;1299;74781;-85
2022/01/08 07:26:11;;;;;;;;;;;;;;;21.92;34.01;101319.08;105235;1300;61190;-83
2022/01/08 07:28:45;;;;;;;;;;;;;;;21.92;34.06;101315.98;105187;1299;61136;-81
2022/01/08 07:31:16;;;;;;;;;;;;;;;21.93;33.99;101315.41;105357;1300;72505;-82
2022/01/08 07:33:51;;;;;;;;;;;;;;;;;;;;;
2022/01/08 07:36:39;;;;;;;;;;;;;;;;;;;;;
2022/01/08 07:39:08;;;;;;;;;;;;;;;21.93;34.01;101301.41;105275;1299;61173;-78
2022/01/08 07:41:43;;;;;;;;;;;;;;;21.93;34.26;101301.39;105212;1299;72870;-82
2022/01/08 07:44:08;;;;;;;;;;;;;;;21.93;34.12;101300.85;105302;1299;74651;-79
2022/01/08 07:46:34;;;;;;;;;;;;;;;21.94;34.01;101297.61;105247;1299;61290;-81
2022/01/08 07:49:11;;;;;;;;;;;;;;;21.94;34.19;101294.73;105205;1299;61285;-81
2022/01/08 07:51:45;;;;;;;;;;;;;;;21.94;34.11;101290.98;105249;1299;72651;-82
2022/01/08 07:54:14;;;;;;;;;;;;;;;21.94;34.14;101292.40;105326;1299;75808;-81
2022/01/08 07:56:45;;;;;;;;;;;;;;;21.93;34.07;101291.88;105214;1299;61379;-82
2022/01/08 07:59:19;;;;;;;;;;;;;;;21.94;33.97;101290.59;105303;1299;61177;-85
2022/01/08 08:01:52;;;;;;;;;;;;;;;21.94;33.87;101292.40;105357;1300;73900;-83
2022/01/08 08:04:20;;;;;;;;;;;;;;;21.94;34.04;101293.31;105205;1299;75816;-82
2022/01/08 08:06:49;;;;;;;;;;;;;;;21.95;34.06;101291.30;105197;1300;61144;-81
2022/01/08 08:09:15;;;;;;;;;;;;;;;21.94;34.07;101289.35;105207;1299;61168;-82
2022/01/08 08:11:46;;;;;;;;;;;;;;;21.96;34.23;101299.69;105219;1299;61313;-83
2022/01/08 08:14:17;;;;;;;;;;;;;;;21.95;34.01;101294.84;105323;1299;75720;-84
2022/01/08 08:17:00;;;;;;;;;;;;;;;21.96;34.09;101291.97;105229;1299;61205;-79
2022/01/08 08:19:44;;;;;;;;;;;;;;;;;;;;;
2022/01/08 08:22:19;;;;;;;;;;;;;;;21.96;34.06;101282.23;105293;1299;73940;-80
2022/01/08 08:25:10;;;;;;;;;;;;;;;;;;;;;
2022/01/08 08:27:43;;;;;;;;;;;;;;;21.97;34.27;101275.58;105295;1299;61257;-83
2022/01/08 08:30:29;;;;;;;;;;;;;;;21.97;34.41;101269.64;105165;1299;61271;-81
2022/01/08 08:33:18;;;;;;;;;;;;;;;21.98;34.13;101265.66;105270;1299;73820;-82
2022/01/08 08:35:48;;;;;;;;;;;;;;;21.97;34.03;101259.94;105362;1300;73480;-83
2022/01/08 08:38:34;;;;;;;;;;;;;;;21.97;34.09;101254.57;105280;1299;61828;-85
2022/01/08 08:41:06;;;;;;;;;;;;;;;21.98;34.16;101253.07;105230;1299;61277;-82
2022/01/08 08:43:41;;;;;;;;;;;;;;;21.99;34.12;101248.58;105248;1299;73338;-84
2022/01/08 08:46:30;;;;;;;;;;;;;;;;;;;;;
2022/01/08 08:49:15;;;;;;;;;;;;;;;21.98;34.21;101239.09;105234;1300;61276;-80
2022/01/08 08:51:50;;;;;;;;;;;;;;;21.98;34.27;101236.95;105206;1300;61100;-80
2022/01/08 08:54:36;;;;;;;;;;;;;;;21.98;34.11;101233.52;105243;1299;74275;-82
2022/01/08 08:57:22;;;;;;;;;;;;;;;;;;;;;
2022/01/08 09:00:01;;;;;;;;;;;;;;;21.99;34.28;101228.10;104946;1300;61245;-83
2022/01/08 09:02:41;;;;;;;;;;;;;;;21.99;34.17;101224.67;105259;1298;61250;-82
2022/01/08 09:05:28;;;;;;;;;;;;;;;22.00;34.14;101222.46;105239;1299;71662;-81
2022/01/08 09:07:54;;;;;;;;;;;;;;;22.01;33.94;101221.34;105272;1299;75833;-85
2022/01/08 09:10:28;;;;;;;;;;;;;;;22.01;34.06;101221.16;105307;1298;61294;-81
2022/01/08 09:13:05;;;;;;;;;;;;;;;22.01;34.11;101214.16;105321;1299;61741;-82
2022/01/08 09:15:37;;;;;;;;;;;;;;;22.01;34.24;101210.58;105257;1299;73873;-83
2022/01/08 09:18:09;;;;;;;;;;;;;;;22.01;34.17;101211.27;105176;1299;74771;-81
2022/01/08 09:20:42;;;;;;;;;;;;;;;22.00;34.05;101210.98;105280;1299;61321;-81
2022/01/08 09:23:10;;;;;;;;;;;;;;;22.00;34.08;101203.45;105223;1299;62010;-82
2022/01/08 09:25:44;;;;;;;;;;;;;;;22.01;33.96;101202.86;105210;1299;74335;-85
2022/01/08 09:28:19;;;;;;;;;;;;;;;22.01;34.12;101196.07;105217;1299;76247;-82
2022/01/08 09:30:54;;;;;;;;;;;;;;;;;;;;;
2022/01/08 09:33:20;;;;;;;;;;;;;;;22.00;34.12;101183.55;105262;1299;62320;-85
2022/01/08 09:35:46;;;;;;;;;;;;;;;22.00;33.98;101178.89;105216;1299;61234;-80
2022/01/08 09:38:12;;;;;;;;;;;;;;;22.00;34.16;101175.86;105188;1299;61271;-83
2022/01/08 09:40:49;;;;;;;;;;;;;;;22.00;34.14;101170.14;105221;1299;61160;-82
2022/01/08 09:43:38;;;;;;;;;;;;;;;22.00;34.09;101161.01;105182;1299;61288;-82
2022/01/08 09:46:11;;;;;;;;;;;;;;;22.01;34.20;101158.23;105205;1299;73209;-84
2022/01/08 09:48:39;;;;;;;;;;;;;;;22.00;34.05;101154.87;105391;1299;75527;-84
2022/01/08 09:51:14;;;;;;;;;;;;;;;22.01;34.14;101157.36;105261;1299;61286;-82
2022/01/08 09:53:40;;;;;;;;;;;;;;;22.01;34.02;101159.34;105209;1299;61168;-81
2022/01/08 09:56:08;;;;;;;;;;;;;;;22.01;34.09;101155.55;105292;1299;72795;-85
2022/01/08 09:58:56;;;;;;;;;;;;;;;22.01;34.11;101150.37;104881;1304;73065;-83
2022/01/08 10:01:29;;;;;;;;;;;;;;;22.00;34.13;101150.23;104770;1305;61405;-84
2022/01/08 10:04:03;;;;;;;;;;;;;;;22.01;34.36;101144.82;104735;1306;61713;-84
2022/01/08 10:06:35;;;;;;;;;;;;;;;22.01;34.12;101142.65;104740;1306;72249;-82
2022/01/08 10:09:02;;;;;;;;;;;;;;;22.00;34.17;101140.89;104750;1306;74730;-83
2022/01/08 10:11:44;;;;;;;;;;;;;;;22.01;34.01;101138.89;104732;1306;61122;-82
2022/01/08 10:17:13;;;;;;;;;;;;;;;22.01;34.12;101130.27;104775;1305;61792;-82
2022/01/08 10:17:18;;;;;;;;;;;;;;;22.01;34.12;101130.09;104839;1305;72907;-83
2022/01/08 10:19:43;;;;;;;;;;;;;;;22.01;34.05;101124.02;104839;1306;76163;-86
2022/01/08 10:22:35;;;;;;;;;;;;;;;22.01;34.18;101117.54;104747;1306;61487;-82
2022/01/08 10:25:13;;;;;;;;;;;;;;;22.01;34.17;101115.92;104648;1305;61487;-82
2022/01/08 10:27:47;;;;;;;;;;;;;;;22.02;34.09;101111.59;104644;1305;74081;-83
2022/01/08 10:30:33;;;;;;;;;;;;;;;22.01;34.10;101108.21;104854;1305;75713;-84
2022/01/08 10:32:59;;;;;;;;;;;;;;;22.02;34.06;101108.56;104794;1305;61268;-85
2022/01/08 10:35:43;;;;;;;;;;;;;;;22.02;34.38;101107.30;104734;1305;61448;-79
2022/01/08 10:38:23;;;;;;;;;;;;;;;22.02;34.06;101103.35;105398;1299;72908;-85
2022/01/08 10:40:59;;;;;;;;;;;;;;;22.01;34.32;101092.98;105206;1299;74734;-82
2022/01/08 10:43:35;;;;;;;;;;;;;;;22.02;34.10;101092.79;105326;1299;61178;-82
2022/01/08 10:46:11;;;;;;;;;;;;;;;22.01;34.02;101082.24;105284;1299;61464;-87
2022/01/08 10:48:59;;;;;;;;;;;;;;;22.02;34.10;101080.23;105302;1299;72959;-79
2022/01/08 10:51:27;;;;;;;;;;;;;;;22.02;34.26;101077.73;105280;1297;75972;-85
2022/01/08 10:54:08;;;;;;;;;;;;;;;22.02;34.23;101076.63;105223;1299;61405;-83
2022/01/08 10:56:40;;;;;;;;;;;;;;;22.02;33.96;101072.15;105380;1299;61221;-81
2022/01/08 10:59:08;;;;;;;;;;;;;;;22.03;34.28;101066.90;105178;1299;72904;-83
2022/01/08 11:01:55;;;;;;;;;;;;;;;22.03;34.11;101061.35;105238;1299;75940;-82
2022/01/08 11:04:33;;;;;;;;;;;;;;;22.03;34.28;101058.77;105154;1300;61207;-81
2022/01/08 11:07:04;;;;;;;;;;;;;;;22.03;34.22;101052.15;105284;1299;61259;-82
2022/01/08 11:09:37;;;;;;;;;;;;;;;22.03;34.12;101049.64;105174;1299;74198;-82
2022/01/08 11:12:16;;;;;;;;;;;;;;;22.03;34.20;101047.00;105226;1299;75845;-86
2022/01/08 11:17:44;;;;;;;;;;;;;;;22.04;34.06;101038.86;105216;1299;61195;-86
2022/01/08 11:20:21;;;;;;;;;;;;;;;22.04;34.09;101036.91;105260;1298;73721;-81
2022/01/08 11:23:12;;;;;;;;;;;;;;;22.03;34.23;101033.73;105178;1299;74193;-84
2022/01/08 11:25:38;;;;;;;;;;;;;;;22.03;34.16;101033.38;105046;1300;61321;-78
2022/01/08 11:28:25;;;;;;;;;;;;;;;22.03;34.12;101029.93;105191;1299;61663;-81
2022/01/08 11:30:51;;;;;;;;;;;;;;;22.04;34.13;101027.23;105123;1300;71570;-83
2022/01/08 11:33:31;;;;;;;;;;;;;;;22.04;34.15;101024.36;105303;1299;75486;-80
2022/01/08 11:36:17;;;;;;;;;;;;;;;22.03;34.16;101020.97;105260;1299;61280;-82
2022/01/08 11:38:48;;;;;;;;;;;;;;;22.04;34.03;101018.80;105354;1299;61282;-81
2022/01/08 11:41:16;;;;;;;;;;;;;;;22.04;33.94;101011.27;105284;1299;72875;-81
2022/01/08 11:43:42;;;;;;;;;;;;;;;22.03;34.14;101009.16;105282;1298;74755;-83
2022/01/08 11:46:10;;;;;;;;;;;;;;;22.04;34.25;101007.13;105307;1299;61279;-85
2022/01/08 11:48:46;;;;;;;;;;;;;;;22.03;34.11;101007.52;105290;1299;61699;-82
2022/01/08 11:51:20;;;;;;;;;;;;;;;22.03;33.96;101002.86;105281;1299;73850;-82
2022/01/08 11:54:12;;;;;;;;;;;;;;;22.04;33.99;101004.26;105262;1299;74791;-83
2022/01/08 11:56:50;;;;;;;;;;;;;;;22.04;34.05;100997.95;105260;1299;61250;-84
2022/01/08 11:59:17;;;;;;;;;;;;;;;22.05;34.13;100991.85;105302;1299;61166;-81
2022/01/08 12:02:12;;;;;;;;;;;;;;;22.04;34.03;100988.82;105263;1299;71644;-81
2022/01/08 12:04:51;;;;;;;;;;;;;;;22.05;34.13;100977.14;105371;1299;74695;-81
2022/01/08 12:07:37;;;;;;;;;;;;;;;22.05;34.09;100973.55;105014;1303;61379;-82
2022/01/08 12:10:18;;;;;;;;;;;;;;;22.05;34.07;100970.16;104924;1303;61496;-81
2022/01/08 12:12:57;;;;;;;;;;;;;;;22.05;34.12;100965.34;104832;1303;73846;-82
2022/01/08 12:15:41;;;;;;;;;;;;;;;22.04;33.99;100963.55;105022;1302;74963;-82
2022/01/08 12:18:27;;;;;;;;;;;;;;;22.05;34.04;100964.44;104998;1302;61411;-82
2022/01/08 12:21:01;;;;;;;;;;;;;;;22.04;34.19;100958.55;104854;1303;61284;-82
2022/01/08 12:23:52;;;;;;;;;;;;;;;22.05;34.02;100954.01;105011;1303;61332;-82
2022/01/08 12:26:21;;;;;;;;;;;;;;;22.05;34.06;100951.17;105019;1303;73696;-82
2022/01/08 12:28:57;;;;;;;;;;;;;;;22.04;34.13;100947.59;104985;1303;61291;-80
2022/01/08 12:31:54;;;;;;;;;;;;;;;22.05;34.08;100942.17;104915;1303;61500;-85
2022/01/08 12:34:40;;;;;;;;;;;;;;;22.05;34.17;100938.75;104526;1308;73592;-80
2022/01/08 12:37:21;;;;;;;;;;;;;;;22.05;33.96;100936.25;104462;1308;74821;-81
2022/01/08 12:39:57;;;;;;;;;;;;;;;22.05;33.99;100935.38;104846;1305;61197;-80
2022/01/08 12:42:46;;;;;;;;;;;;;;;22.05;33.93;100936.77;104893;1305;61300;-82
2022/01/08 12:45:19;;;;;;;;;;;;;;;22.05;34.04;100931.77;104903;1306;73714;-81
2022/01/08 12:48:14;;;;;;;;;;;;;;;22.06;34.08;100930.11;104882;1305;75607;-82
2022/01/08 12:50:51;;;;;;;;;;;;;;;22.06;33.96;100924.91;104894;1305;61535;-82
2022/01/08 12:53:22;;;;;;;;;;;;;;;22.07;33.96;100925.56;104901;1306;61388;-82
2022/01/08 12:55:57;;;;;;;;;;;;;;;22.07;34.07;100922.48;104807;1305;74239;-84
2022/01/08 12:58:35;;;;;;;;;;;;;;;22.07;34.03;100926.08;104898;1305;74720;-81
2022/01/08 13:01:13;;;;;;;;;;;;;;;22.07;34.01;100920.52;104831;1305;61406;-82
2022/01/08 13:03:39;;;;;;;;;;;;;;;22.07;34.19;100914.59;104829;1305;61874;-82
2022/01/08 13:06:34;;;;;;;;;;;;;;;22.07;34.00;100908.82;104873;1305;72720;-83
2022/01/08 13:09:02;;;;;;;;;;;;;;;22.07;34.01;100901.14;104827;1305;74895;-85
2022/01/08 13:11:37;;;;;;;;;;;;;;;22.07;34.01;100900.25;105106;1299;61307;-82
2022/01/08 13:14:16;;;;;;;;;;;;;;;;;;;;;
2022/01/08 13:16:48;;;;;;;;;;;;;;;22.07;33.96;100883.20;105350;1299;72809;-81
2022/01/08 13:30:48;;;;;;;5.00;3.50;;;;;;;22.68;33.49;100877.77;104234;1308;613276;-82
2022/01/08 13:33:21;;;;;;;5.60;3.50;;;;;;;22.69;33.51;100874.67;104264;1309;169978;-81
2022/01/08 13:36:04;;;;;;;5.80;3.70;;;;;;;22.64;33.68;100870.76;104520;1309;61594;-82
2022/01/08 13:38:34;;;;;;;5.50;3.40;;;;;;;22.59;33.60;100871.33;104488;1307;60265;-82
2022/01/08 13:41:16;;;;;;;6.30;3.80;;;;;;;22.55;33.56;100865.00;104504;1309;73576;-83
2022/01/08 13:44:16;;;;;;;4.90;3.40;;;;;;;22.50;33.39;100863.37;104515;1309;72517;-87
2022/01/08 13:46:45;;;;;;;6.00;3.50;;;;;;;22.45;33.41;100863.55;104152;1316;60346;-85
2022/01/08 13:49:24;;;;;;;5.40;3.50;;;;;;;22.43;33.69;100862.14;103861;1318;61349;-82
2022/01/08 13:51:55;;;;;;;6.20;3.60;;;;;;;22.39;33.64;100862.02;103886;1316;72638;-82
2022/01/08 13:54:24;;;;;;;5.90;3.70;;;;;;;22.37;33.47;100862.95;104090;1316;72406;-81
2022/01/08 13:56:50;;;;;;;6.30;3.50;;;;;;;22.35;33.64;100863.27;103905;1317;60566;-84
2022/01/08 13:59:22;;;;;;;4.90;3.30;;;;;;;22.32;33.67;100856.27;103895;1318;59799;-83
2022/01/08 14:01:51;;;;;;;5.10;3.20;;;;;;;22.30;33.56;100855.70;103895;1317;72811;-82
2022/01/08 14:04:29;;;;;;;5.30;3.70;;;;;;;22.29;33.55;100852.21;103891;1317;73471;-84
2022/01/08 14:06:59;;;;;;;5.90;3.90;;;;;;;22.27;33.86;100851.98;104071;1316;61329;-83